Time;durP1;ratioP1;P1;durP2;ratioP2;P2;SDS_P1;SDS_P2;PMS_P1;PMS_P2;Temp;Humidity;BMP_temperature;BMP_pressure;BME280_temperature;BME280_humidity;BME280_pressure;Samples;Min_cycle;Max_cycle;Signal;HPM_P1;HPM_P2
2022/09/22 00:04:47;;;;;;;3.30;3.00;;;11.60;33.80;;;;;;10533078;28;20258;-73
2022/09/22 00:09:50;;;;;;;3.43;3.13;;;11.50;33.90;;;;;;10533457;28;20227;-73
2022/09/22 00:14:54;;;;;;;3.30;2.80;;;11.30;33.80;;;;;;10533798;28;20242;-73
2022/09/22 00:19:58;;;;;;;3.40;3.10;;;11.10;34.00;;;;;;10533609;28;20235;-73
2022/09/22 00:25:01;;;;;;;4.30;3.40;;;11.00;34.60;;;;;;10533280;28;20238;-73
2022/09/22 00:30:05;;;;;;;3.53;3.00;;;11.00;34.60;;;;;;10533410;28;20235;-73
2022/09/22 00:35:10;;;;;;;3.10;2.80;;;11.00;34.60;;;;;;10533402;28;20235;-73
2022/09/22 00:40:13;;;;;;;3.20;2.90;;;10.90;34.60;;;;;;10533181;28;20239;-73
2022/09/22 00:45:17;;;;;;;2.80;2.60;;;10.90;34.60;;;;;;10533259;28;20260;-73
2022/09/22 00:50:24;;;;;;;3.10;2.90;;;10.90;34.70;;;;;;10533132;28;20277;-73
2022/09/22 00:55:34;;;;;;;2.90;2.70;;;10.80;35.00;;;;;;10532777;28;20227;-73
2022/09/22 01:00:37;;;;;;;3.00;2.70;;;10.80;34.90;;;;;;10522374;28;20236;-73
2022/09/22 01:05:43;;;;;;;2.63;2.43;;;10.80;34.60;;;;;;10530355;28;20251;-73
2022/09/22 01:10:48;;;;;;;3.37;2.37;;;10.80;34.80;;;;;;10532744;28;20219;-73
2022/09/22 01:16:01;;;;;;;3.30;3.00;;;10.80;34.60;;;;;;10536750;28;20232;-73
2022/09/22 01:21:23;;;;;;;2.80;2.60;;;10.70;34.90;;;;;;10540325;28;20223;-73
2022/09/22 01:27:06;;;;;;;2.63;2.43;;;10.70;35.10;;;;;;10539333;28;20223;-73
2022/09/22 01:32:17;;;;;;;2.80;2.10;;;10.70;35.10;;;;;;10540167;28;20219;-73
2022/09/22 01:37:25;;;;;;;2.53;2.33;;;10.60;34.90;;;;;;10539912;28;20235;-73
2022/09/22 01:42:35;;;;;;;2.20;2.10;;;10.60;34.70;;;;;;10539611;28;20227;-73
2022/09/22 01:47:46;;;;;;;2.63;2.43;;;10.60;34.90;;;;;;10539867;28;20227;-73
2022/09/22 01:52:51;;;;;;;2.17;2.07;;;10.50;34.80;;;;;;10539414;28;20245;-73
2022/09/22 01:57:57;;;;;;;2.60;2.40;;;10.50;34.70;;;;;;10512482;28;20232;-73
2022/09/22 02:03:08;;;;;;;2.10;2.00;;;10.50;34.70;;;;;;10538670;28;20262;-73
2022/09/22 02:08:17;;;;;;;2.20;2.00;;;10.40;34.80;;;;;;10538117;28;20232;-73
2022/09/22 02:13:21;;;;;;;1.87;1.77;;;10.40;34.80;;;;;;10540420;28;20231;-73
2022/09/22 02:18:28;;;;;;;2.67;1.73;;;10.40;34.60;;;;;;10544485;28;20273;-74
2022/09/22 02:23:32;;;;;;;1.60;1.50;;;10.30;34.80;;;;;;10541017;28;20219;-74
2022/09/22 02:28:38;;;;;;;1.57;1.47;;;10.30;34.60;;;;;;10542290;28;20707;-74
2022/09/22 02:33:43;;;;;;;1.87;1.77;;;10.20;34.70;;;;;;10555785;28;20222;-74
2022/09/22 02:38:54;;;;;;;1.90;1.80;;;10.20;34.70;;;;;;10558328;28;20278;-74
2022/09/22 02:44:03;;;;;;;2.30;2.10;;;10.20;34.80;;;;;;10542149;28;20285;-73
2022/09/22 02:49:11;;;;;;;1.90;1.80;;;10.20;34.80;;;;;;10525697;28;20598;-73
2022/09/22 02:54:14;;;;;;;1.97;1.87;;;10.20;34.90;;;;;;10536838;28;20281;-73
2022/09/22 02:59:18;;;;;;;2.40;2.20;;;10.10;34.70;;;;;;10546006;28;20254;-73
2022/09/22 03:04:22;;;;;;;2.63;2.43;;;10.10;34.70;;;;;;10561746;28;20254;-73
2022/09/22 03:09:25;;;;;;;2.20;2.10;;;10.00;34.70;;;;;;10539827;28;20231;-74
2022/09/22 03:14:29;;;;;;;3.00;2.10;;;10.00;34.60;;;;;;10530429;28;20764;-73
2022/09/22 03:19:33;;;;;;;2.97;2.73;;;10.00;34.60;;;;;;10535524;28;20227;-74
2022/09/22 03:24:36;;;;;;;2.50;2.30;;;9.90;35.70;;;;;;10557112;28;20284;-73
2022/09/22 03:29:39;;;;;;;2.53;2.33;;;9.80;35.60;;;;;;10574068;28;20223;-73
2022/09/22 03:34:44;;;;;;;3.60;3.03;;;9.80;35.80;;;;;;10547358;28;20231;-73
2022/09/22 03:39:47;;;;;;;3.50;3.20;;;9.80;35.90;;;;;;10534503;28;20232;-73
2022/09/22 03:44:50;;;;;;;2.40;2.20;;;9.80;35.80;;;;;;10551180;28;20227;-73
2022/09/22 03:49:54;;;;;;;3.53;3.23;;;9.80;35.70;;;;;;10503224;28;20235;-73
2022/09/22 03:54:58;;;;;;;2.90;2.70;;;9.70;35.80;;;;;;10492105;28;20237;-73
2022/09/22 04:00:01;;;;;;;2.20;2.00;;;9.70;35.70;;;;;;10513146;28;20296;-73
2022/09/22 04:05:07;;;;;;;2.60;2.40;;;9.60;35.70;;;;;;10575689;28;20246;-73
2022/09/22 04:10:10;;;;;;;2.20;2.10;;;9.60;35.90;;;;;;10576835;28;20230;-73
2022/09/22 04:15:14;;;;;;;1.80;1.70;;;9.60;35.90;;;;;;10576848;28;20283;-73
2022/09/22 04:20:19;;;;;;;2.10;2.00;;;9.60;36.70;;;;;;10576197;28;20242;-73
2022/09/22 04:25:22;;;;;;;2.30;2.20;;;9.60;35.90;;;;;;10557055;28;20243;-75
2022/09/22 04:30:25;;;;;;;3.43;2.10;;;9.50;35.60;;;;;;10534366;28;20285;-74
2022/09/22 04:35:30;;;;;;;2.63;2.30;;;9.40;35.60;;;;;;10533596;28;20238;-74
2022/09/22 04:40:33;;;;;;;2.30;2.20;;;9.40;35.90;;;;;;10533635;28;20594;-74
2022/09/22 04:45:37;;;;;;;2.40;2.20;;;9.40;35.90;;;;;;10533910;28;20235;-74
2022/09/22 04:50:43;;;;;;;2.30;2.10;;;9.30;35.90;;;;;;10538687;28;20231;-75
2022/09/22 04:55:50;;;;;;;2.13;1.80;;;9.30;36.00;;;;;;10542801;28;20462;-75
2022/09/22 05:00:54;;;;;;;2.40;2.00;;;9.30;35.80;;;;;;10543296;28;20228;-75
2022/09/22 05:05:59;;;;;;;2.07;1.90;;;9.30;35.90;;;;;;10542439;28;20716;-75
2022/09/22 05:11:08;;;;;;;2.20;2.00;;;9.20;36.00;;;;;;10542657;28;20300;-77
2022/09/22 05:16:11;;;;;;;1.77;1.67;;;9.20;35.90;;;;;;10542872;28;20251;-76
2022/09/22 05:21:17;;;;;;;2.40;2.20;;;9.20;35.90;;;;;;10541860;28;20227;-75
2022/09/22 05:26:20;;;;;;;3.60;2.20;;;9.20;36.20;;;;;;10541228;28;20227;-76
2022/09/22 05:31:24;;;;;;;2.40;2.20;;;9.20;36.20;;;;;;10540749;28;20309;-75
2022/09/22 05:36:28;;;;;;;3.13;2.30;;;9.10;36.10;;;;;;10539048;28;20728;-75
2022/09/22 05:41:31;;;;;;;3.70;3.13;;;9.10;36.30;;;;;;10521002;28;20285;-75
2022/09/22 05:46:34;;;;;;;3.90;3.60;;;9.10;36.30;;;;;;10540711;28;20223;-75
2022/09/22 05:51:39;;;;;;;6.10;4.07;;;9.10;36.30;;;;;;10510252;28;20315;-76
2022/09/22 05:56:42;;;;;;;3.17;2.80;;;9.10;36.70;;;;;;10544688;28;20738;-76
2022/09/22 06:01:45;;;;;;;3.20;2.90;;;9.10;36.60;;;;;;10539309;28;20227;-76
2022/09/22 06:06:50;;;;;;;3.07;2.87;;;9.10;36.80;;;;;;10539770;28;20230;-76
2022/09/22 06:11:53;;;;;;;4.37;3.03;;;9.20;37.10;;;;;;10566001;28;20695;-75
2022/09/22 06:16:57;;;;;;;4.83;3.60;;;9.10;36.80;;;;;;10566991;28;20224;-76
2022/09/22 06:22:01;;;;;;;4.33;3.93;;;9.20;37.10;;;;;;10555666;28;20239;-76
2022/09/22 06:27:05;;;;;;;4.20;3.87;;;9.20;37.50;;;;;;10538743;28;20271;-76
2022/09/22 06:32:09;;;;;;;4.63;4.23;;;9.20;37.40;;;;;;10538696;28;20232;-75
2022/09/22 06:37:14;;;;;;;4.20;3.80;;;9.20;37.60;;;;;;10544344;28;20238;-75
2022/09/22 06:42:18;;;;;;;3.87;3.57;;;9.30;38.20;;;;;;10581065;28;20280;-76
2022/09/22 06:47:21;;;;;;;5.50;3.50;;;9.30;38.00;;;;;;10547713;28;20235;-75
2022/09/22 06:52:26;;;;;;;3.60;3.30;;;9.40;38.30;;;;;;10532725;28;20258;-74
2022/09/22 06:57:31;;;;;;;4.20;3.80;;;9.50;38.70;;;;;;10532271;28;20277;-75
2022/09/22 07:02:34;;;;;;;4.03;3.73;;;9.60;38.70;;;;;;10532334;28;20254;-75
2022/09/22 07:07:39;;;;;;;4.17;3.77;;;9.60;38.80;;;;;;10531899;28;20223;-75
2022/09/22 07:12:45;;;;;;;4.47;4.07;;;9.70;39.50;;;;;;10531473;28;20231;-75
2022/09/22 07:17:52;;;;;;;4.60;4.20;;;9.80;40.20;;;;;;10531275;28;20219;-75
2022/09/22 07:22:59;;;;;;;4.67;4.20;;;9.90;40.80;;;;;;10531070;28;20223;-75
2022/09/22 07:28:04;;;;;;;4.47;4.07;;;9.90;40.30;;;;;;10530375;28;20771;-75
2022/09/22 07:33:07;;;;;;;4.10;3.80;;;10.10;39.20;;;;;;10534891;28;20634;-75
2022/09/22 07:38:11;;;;;;;4.33;3.37;;;10.20;39.50;;;;;;10527277;28;20692;-74
2022/09/22 07:43:14;;;;;;;3.70;3.40;;;10.30;40.20;;;;;;10527722;28;20227;-74
2022/09/22 07:53:40;;;;;;;3.43;3.13;;;10.70;40.50;;;;;;10504596;27;20219;-74
2022/09/22 07:58:48;;;;;;;3.80;3.20;;;11.00;40.90;;;;;;10502643;28;20228;-74
2022/09/22 08:03:52;;;;;;;3.87;3.57;;;11.30;41.60;;;;;;10508912;28;20224;-75
2022/09/22 08:08:59;;;;;;;3.60;3.30;;;11.60;41.30;;;;;;10518136;28;20277;-75
2022/09/22 08:14:05;;;;;;;4.00;3.70;;;11.90;41.60;;;;;;10511457;28;20741;-74
2022/09/22 08:19:11;;;;;;;4.07;3.50;;;12.20;41.90;;;;;;10526680;28;20275;-74
2022/09/22 08:24:20;;;;;;;3.30;3.10;;;12.50;41.80;;;;;;10508964;28;20699;-74
2022/09/22 08:29:24;;;;;;;3.30;3.10;;;12.80;42.40;;;;;;10510175;28;20865;-74
2022/09/22 08:34:27;;;;;;;3.67;3.37;;;13.20;41.60;;;;;;10508930;28;20223;-74
2022/09/22 08:39:32;;;;;;;3.30;3.00;;;13.50;41.40;;;;;;10554246;28;20238;-75
2022/09/22 08:44:39;;;;;;;3.80;3.07;;;13.80;41.30;;;;;;10565172;28;20226;-75
2022/09/22 08:55:19;;;;;;;3.50;3.20;;;14.50;41.10;;;;;;10539736;28;20231;-75
2022/09/22 09:00:24;;;;;;;2.80;2.60;;;14.80;40.90;;;;;;10527216;28;20236;-75
2022/09/22 09:05:53;;;;;;;2.87;2.67;;;15.10;40.50;;;;;;10527004;28;20232;-76
2022/09/22 09:11:09;;;;;;;3.53;3.20;;;15.40;40.60;;;;;;10527611;28;20228;-75
2022/09/22 09:16:26;;;;;;;2.50;2.30;;;15.70;40.10;;;;;;10526400;28;20644;-75
2022/09/22 09:21:32;;;;;;;1.70;1.60;;;16.00;39.20;;;;;;10518941;28;20708;-75
2022/09/22 09:26:37;;;;;;;1.77;1.67;;;16.20;38.40;;;;;;10491788;28;20232;-74
2022/09/22 09:31:47;;;;;;;1.70;1.60;;;16.40;38.00;;;;;;10527540;28;20232;-76
2022/09/22 09:36:54;;;;;;;1.70;1.60;;;16.70;37.60;;;;;;10528296;28;20223;-75
2022/09/22 09:42:01;;;;;;;1.70;1.60;;;17.00;37.00;;;;;;10532926;28;20230;-74
2022/09/22 09:47:14;;;;;;;2.70;1.73;;;17.30;36.50;;;;;;10546755;28;20227;-74
2022/09/22 09:52:19;;;;;;;1.90;1.80;;;17.50;35.80;;;;;;10501140;28;20251;-74
2022/09/22 09:57:23;;;;;;;1.50;1.40;;;17.80;37.10;;;;;;10508232;28;20236;-76
2022/09/22 10:02:33;;;;;;;1.77;1.67;;;18.00;35.90;;;;;;10532210;28;20231;-75
2022/09/22 10:07:42;;;;;;;1.53;1.43;;;18.20;35.80;;;;;;10571568;28;20276;-75
2022/09/22 10:12:47;;;;;;;2.03;1.40;;;18.50;35.20;;;;;;10577406;28;20218;-75
2022/09/22 10:17:50;;;;;;;3.43;1.50;;;18.70;35.40;;;;;;10576934;28;20284;-76
2022/09/22 10:22:56;;;;;;;1.37;1.27;;;18.90;35.50;;;;;;10561417;28;20231;-76
2022/09/22 10:28:05;;;;;;;1.60;1.50;;;19.00;34.50;;;;;;10534787;28;20281;-78
2022/09/22 10:33:17;;;;;;;1.50;1.40;;;19.20;34.00;;;;;;10536564;28;20284;-77
2022/09/22 10:38:22;;;;;;;1.57;1.47;;;19.40;33.30;;;;;;10554019;28;20231;-76
2022/09/22 10:43:37;;;;;;;1.90;1.80;;;19.50;34.00;;;;;;10530158;28;20222;-75
2022/09/22 10:48:47;;;;;;;1.63;1.13;;;19.70;32.70;;;;;;10533417;28;20227;-73
2022/09/22 10:54:11;;;;;;;1.50;1.40;;;19.80;32.70;;;;;;10501827;28;20256;-74
2022/09/22 10:59:47;;;;;;;1.27;1.27;;;19.90;32.40;;;;;;10529865;28;20224;-74
2022/09/22 11:05:05;;;;;;;1.50;1.40;;;20.00;31.70;;;;;;10534342;28;20568;-77
2022/09/22 11:16:09;;;;;;;1.37;1.27;;;20.10;31.30;;;;;;10461213;28;20229;-76
2022/09/22 11:21:30;;;;;;;1.40;1.30;;;20.20;32.10;;;;;;10534379;28;20231;-76
2022/09/22 11:26:46;;;;;;;1.30;1.20;;;20.30;30.90;;;;;;10552099;28;20700;-75
2022/09/22 11:32:01;;;;;;;1.20;1.17;;;20.40;30.20;;;;;;10535603;28;20227;-78
2022/09/22 11:37:28;;;;;;;1.50;1.40;;;20.40;30.00;;;;;;10528858;28;20228;-76
2022/09/22 11:42:42;;;;;;;1.67;1.57;;;20.50;30.10;;;;;;10530311;28;20249;-75
2022/09/22 11:47:56;;;;;;;1.50;1.40;;;20.50;30.00;;;;;;10532010;28;20234;-77
2022/09/22 11:53:19;;;;;;;1.60;1.50;;;20.50;29.80;;;;;;10517276;28;20224;-77
2022/09/22 11:58:27;;;;;;;1.20;1.20;;;20.50;29.90;;;;;;10526401;28;20232;-77
2022/09/22 12:03:38;;;;;;;1.70;1.60;;;20.50;29.70;;;;;;10523967;28;20227;-75
2022/09/22 12:08:48;;;;;;;1.60;1.50;;;20.50;29.60;;;;;;10519088;28;20319;-77
2022/09/22 12:13:55;;;;;;;1.40;1.30;;;20.50;29.50;;;;;;10510692;28;20303;-77
2022/09/22 12:19:04;;;;;;;1.43;1.33;;;20.50;29.40;;;;;;10514860;28;20294;-76
2022/09/22 12:24:10;;;;;;;1.40;1.30;;;20.40;29.10;;;;;;10517276;28;20219;-76
2022/09/22 12:29:24;;;;;;;1.37;1.27;;;20.40;29.70;;;;;;10538337;28;20231;-77
2022/09/22 12:34:43;;;;;;;1.73;1.27;;;20.20;28.50;;;;;;10496325;28;20228;-78
2022/09/22 12:39:58;;;;;;;1.40;1.30;;;20.10;28.10;;;;;;10528520;28;20232;-78
2022/09/22 12:45:15;;;;;;;1.40;1.30;;;20.00;28.30;;;;;;10532832;28;20726;-77
2022/09/22 12:50:36;;;;;;;1.43;1.33;;;20.00;28.40;;;;;;10522460;28;20224;-77
2022/09/22 12:55:43;;;;;;;1.47;1.40;;;19.90;28.80;;;;;;10503058;28;20223;-77
2022/09/22 13:00:47;;;;;;;1.10;1.10;;;19.90;28.60;;;;;;10524230;28;20242;-77
2022/09/22 13:05:53;;;;;;;1.50;1.40;;;19.90;29.40;;;;;;10529898;28;20690;-77
2022/09/22 13:11:04;;;;;;;1.27;1.27;;;19.90;28.90;;;;;;10530763;28;20247;-77
2022/09/22 13:16:35;;;;;;;1.37;1.27;;;19.80;27.90;;;;;;10540422;28;20637;-78
2022/09/22 13:21:45;;;;;;;1.37;1.27;;;19.80;28.20;;;;;;10535702;28;20684;-78
2022/09/22 13:27:04;;;;;;;1.30;1.30;;;19.80;28.40;;;;;;10530039;28;20223;-78
2022/09/22 13:32:34;;;;;;;1.10;1.10;;;19.80;28.30;;;;;;10536189;28;20827;-77
2022/09/22 13:37:39;;;;;;;1.30;1.30;;;19.90;28.30;;;;;;10515231;28;20223;-76
2022/09/22 13:42:44;;;;;;;1.13;1.13;;;19.90;28.80;;;;;;10508051;28;20651;-76
2022/09/22 13:47:48;;;;;;;1.30;1.20;;;20.00;29.10;;;;;;10514179;28;20238;-76
2022/09/22 13:52:54;;;;;;;1.43;1.33;;;20.00;28.90;;;;;;10518239;28;20220;-76
2022/09/22 13:57:59;;;;;;;2.00;1.90;;;20.00;29.00;;;;;;10500526;28;20236;-76
2022/09/22 14:03:03;;;;;;;1.80;1.70;;;20.00;29.10;;;;;;10514445;28;20875;-78
2022/09/22 14:08:15;;;;;;;1.50;1.40;;;20.10;29.10;;;;;;10504445;28;20657;-78
2022/09/22 14:13:39;;;;;;;1.67;1.30;;;20.10;28.10;;;;;;10509432;28;20719;-78
2022/09/22 14:18:45;;;;;;;4.70;1.50;;;20.10;28.10;;;;;;10514832;28;20693;-78
2022/09/22 14:23:50;;;;;;;1.80;1.70;;;20.10;28.40;;;;;;10512964;28;20231;-78
2022/09/22 14:29:13;;;;;;;1.33;1.30;;;20.10;28.20;;;;;;10507172;28;20230;-78
2022/09/22 14:34:21;;;;;;;1.60;1.50;;;20.10;27.70;;;;;;10512984;28;20216;-78
2022/09/22 14:39:32;;;;;;;1.83;1.33;;;20.00;27.90;;;;;;10504234;28;20235;-78
2022/09/22 14:44:43;;;;;;;1.50;1.40;;;20.00;28.00;;;;;;10507166;28;20228;-78
2022/09/22 14:49:47;;;;;;;2.60;1.60;;;20.00;27.40;;;;;;10519436;28;20245;-78
2022/09/22 14:54:53;;;;;;;1.80;1.70;;;20.00;28.30;;;;;;10514003;28;20220;-78
2022/09/22 15:05:25;;;;;;;1.30;1.30;;;20.10;28.10;;;;;;10506850;28;20278;-78
2022/09/22 15:10:34;;;;;;;1.43;1.33;;;20.00;27.00;;;;;;10510362;28;20289;-78
2022/09/22 15:15:45;;;;;;;1.57;1.47;;;20.00;27.70;;;;;;10509119;28;20223;-78
2022/09/22 15:20:51;;;;;;;1.70;1.60;;;20.00;26.80;;;;;;10514998;28;20223;-75
2022/09/22 15:25:56;;;;;;;2.50;2.30;;;19.90;27.10;;;;;;10523556;28;20305;-76
2022/09/22 15:30:59;;;;;;;1.70;1.60;;;19.80;26.80;;;;;;10518941;28;20665;-75
2022/09/22 15:36:09;;;;;;;1.10;1.10;;;19.80;27.40;;;;;;10530896;28;20241;-76
2022/09/22 15:41:15;;;;;;;1.30;1.30;;;19.80;27.10;;;;;;10534089;28;20222;-76
2022/09/22 15:46:28;;;;;;;1.20;1.20;;;19.70;26.90;;;;;;10541766;28;20229;-76
2022/09/22 15:51:32;;;;;;;1.20;1.20;;;19.70;26.30;;;;;;10515375;28;20231;-75
2022/09/22 15:56:38;;;;;;;1.30;1.20;;;19.70;27.50;;;;;;10521446;28;20238;-75
2022/09/22 16:01:41;;;;;;;1.33;1.23;;;19.70;27.30;;;;;;10530385;28;20334;-75
2022/09/22 16:06:49;;;;;;;1.40;1.30;;;19.70;27.70;;;;;;10528949;28;20585;-76
2022/09/22 16:11:55;;;;;;;1.40;1.30;;;19.70;27.00;;;;;;10524789;28;20255;-76
2022/09/22 16:16:58;;;;;;;1.37;1.30;;;19.70;27.30;;;;;;10527491;28;20236;-76
2022/09/22 16:22:01;;;;;;;2.00;1.37;;;19.70;27.70;;;;;;10530828;28;20265;-76
2022/09/22 16:27:06;;;;;;;1.70;1.60;;;19.70;27.80;;;;;;10530327;28;20231;-76
2022/09/22 16:32:09;;;;;;;1.27;1.17;;;19.70;27.40;;;;;;10568944;28;20227;-76
2022/09/22 16:37:13;;;;;;;1.50;1.40;;;19.70;27.30;;;;;;10572113;28;20235;-75
2022/09/22 16:42:18;;;;;;;2.00;1.80;;;19.60;27.50;;;;;;10571317;28;20786;-75
2022/09/22 16:47:27;;;;;;;1.73;1.60;;;19.60;27.70;;;;;;10578392;28;20227;-75
2022/09/22 16:52:31;;;;;;;2.20;1.80;;;19.50;28.00;;;;;;10582923;28;20215;-75
2022/09/22 16:57:35;;;;;;;1.80;1.60;;;19.50;27.90;;;;;;10582448;28;20223;-75
2022/09/22 17:02:38;;;;;;;1.63;1.50;;;19.40;27.90;;;;;;10582584;28;20231;-75
2022/09/22 17:07:45;;;;;;;1.60;1.50;;;19.30;28.20;;;;;;10583240;28;20363;-75
2022/09/22 17:12:49;;;;;;;1.70;1.60;;;19.20;28.20;;;;;;10582269;28;20215;-75
2022/09/22 17:17:52;;;;;;;3.90;3.60;;;19.10;28.30;;;;;;10582500;28;20230;-75
2022/09/22 17:23:08;;;;;;;5.63;5.07;;;19.00;28.50;;;;;;10582832;28;20230;-77
2022/09/22 17:28:13;;;;;;;7.80;5.53;;;18.90;28.60;;;;;;10581569;28;20267;-75
2022/09/22 17:33:17;;;;;;;5.53;4.87;;;18.80;28.70;;;;;;10582026;28;20229;-75
2022/09/22 17:38:23;;;;;;;6.73;5.03;;;18.60;28.60;;;;;;10581052;28;20234;-75
2022/09/22 17:43:27;;;;;;;5.10;4.60;;;18.50;28.90;;;;;;10579944;28;20272;-75
2022/09/22 17:59:14;;;;;;;4.60;4.20;;;18.20;29.00;;;;;;10578573;28;20230;-75
2022/09/22 18:04:18;;;;;;;6.63;6.07;;;18.00;29.00;;;;;;10579151;28;20238;-75
2022/09/22 18:09:21;;;;;;;8.83;7.37;;;17.90;29.10;;;;;;10579780;28;20711;-75
2022/09/22 18:14:25;;;;;;;7.07;6.37;;;17.70;29.10;;;;;;10579975;28;20223;-75
2022/09/22 18:19:32;;;;;;;5.50;5.10;;;17.60;29.30;;;;;;10579737;28;20239;-75
2022/09/22 18:24:36;;;;;;;5.07;4.67;;;17.50;29.20;;;;;;10579014;28;20234;-75
2022/09/22 18:29:41;;;;;;;4.40;4.00;;;17.40;29.20;;;;;;10573769;28;20223;-75
2022/09/22 18:34:44;;;;;;;4.07;3.77;;;17.30;29.20;;;;;;10535992;28;20742;-76
2022/09/22 18:39:49;;;;;;;6.00;5.43;;;17.10;29.30;;;;;;10535913;28;20230;-75
2022/09/22 18:44:53;;;;;;;8.57;6.03;;;17.00;29.40;;;;;;10533931;28;20227;-73
2022/09/22 18:49:58;;;;;;;5.03;4.53;;;16.90;29.50;;;;;;10533230;28;20601;-73
2022/09/22 18:55:03;;;;;;;4.60;4.20;;;16.80;29.60;;;;;;10532526;28;20228;-73
2022/09/22 19:00:12;;;;;;;3.77;3.47;;;16.70;29.50;;;;;;10532416;28;20239;-73
2022/09/22 19:05:15;;;;;;;4.30;3.50;;;16.50;29.60;;;;;;10532338;28;20235;-72
2022/09/22 19:10:20;;;;;;;3.30;3.00;;;16.40;29.60;;;;;;10532090;28;20994;-73
2022/09/22 19:15:25;;;;;;;2.80;2.60;;;16.20;29.60;;;;;;10530844;28;20227;-73
2022/09/22 19:20:29;;;;;;;3.50;3.20;;;16.10;29.80;;;;;;10531677;28;20281;-73
2022/09/22 19:25:33;;;;;;;3.60;3.30;;;16.00;29.70;;;;;;10530234;28;20289;-73
2022/09/22 19:30:38;;;;;;;3.40;3.10;;;16.00;29.90;;;;;;10532628;28;20261;-73
2022/09/22 19:35:41;;;;;;;7.90;5.37;;;15.90;30.00;;;;;;10534813;28;20277;-73
2022/09/22 19:40:45;;;;;;;10.17;6.57;;;15.80;30.00;;;;;;10535035;28;20232;-73
2022/09/22 19:45:50;;;;;;;16.53;9.27;;;15.70;29.80;;;;;;10533800;28;20695;-72
2022/09/22 19:50:53;;;;;;;18.00;11.63;;;15.60;30.00;;;;;;10534380;28;20227;-73
2022/09/22 19:55:57;;;;;;;11.17;8.30;;;15.50;29.90;;;;;;10532276;28;20231;-72
2022/09/22 20:01:01;;;;;;;5.73;5.10;;;15.30;29.70;;;;;;10532244;28;20731;-72
2022/09/22 20:06:05;;;;;;;5.27;4.50;;;15.20;30.00;;;;;;10531268;28;20610;-72
2022/09/22 20:11:09;;;;;;;3.77;3.47;;;14.90;30.00;;;;;;10530790;28;20234;-72
2022/09/22 20:16:30;;;;;;;4.43;3.20;;;14.70;30.10;;;;;;10531428;28;20227;-72
2022/09/22 20:21:33;;;;;;;3.70;3.10;;;14.60;30.50;;;;;;10529879;28;20774;-72
2022/09/22 20:26:37;;;;;;;3.20;2.90;;;14.50;30.50;;;;;;10530434;28;20234;-72
2022/09/22 20:31:42;;;;;;;3.70;3.27;;;14.40;30.60;;;;;;10530338;28;20219;-72
2022/09/22 20:36:45;;;;;;;4.37;3.40;;;14.30;31.10;;;;;;10530389;28;20219;-72
2022/09/22 20:41:48;;;;;;;3.20;3.00;;;14.20;30.80;;;;;;10530531;28;20222;-73
2022/09/22 20:46:53;;;;;;;7.10;6.10;;;14.20;31.80;;;;;;10530385;28;20787;-72
2022/09/22 20:51:56;;;;;;;7.60;6.90;;;14.10;31.30;;;;;;10529859;28;20982;-72
2022/09/22 20:57:00;;;;;;;7.43;6.07;;;14.10;31.30;;;;;;10529296;28;20239;-72
2022/09/22 21:02:06;;;;;;;6.10;5.43;;;14.00;31.20;;;;;;10529554;28;20224;-72
2022/09/22 21:07:10;;;;;;;6.87;5.50;;;14.00;31.20;;;;;;10529961;28;20239;-72
2022/09/22 21:12:13;;;;;;;4.70;4.30;;;14.00;31.20;;;;;;10529345;28;20630;-72
2022/09/22 21:17:18;;;;;;;5.10;4.60;;;13.90;31.10;;;;;;10529361;28;20267;-72
2022/09/22 21:22:21;;;;;;;4.73;4.33;;;13.80;31.10;;;;;;10529941;28;20231;-72
2022/09/22 21:27:24;;;;;;;4.10;3.70;;;13.60;30.90;;;;;;10529654;28;20329;-73
2022/09/22 21:32:30;;;;;;;3.50;3.20;;;13.50;30.80;;;;;;10533017;28;20219;-72
2022/09/22 21:37:33;;;;;;;4.03;3.63;;;13.40;30.90;;;;;;10536669;28;20297;-72
2022/09/22 21:42:36;;;;;;;4.97;3.57;;;13.30;31.00;;;;;;10536922;28;20292;-72
2022/09/22 21:47:40;;;;;;;3.80;3.30;;;13.20;31.00;;;;;;10535591;28;20243;-72
2022/09/22 21:52:44;;;;;;;4.57;4.17;;;13.10;31.10;;;;;;10534030;28;20281;-72
2022/09/22 21:57:47;;;;;;;6.13;3.50;;;12.90;31.10;;;;;;10535167;28;20669;-72
2022/09/22 22:08:12;;;;;;;4.33;3.73;;;12.70;31.80;;;;;;10535297;28;20227;-72
2022/09/22 22:13:20;;;;;;;4.27;3.97;;;12.70;31.70;;;;;;10535786;28;20227;-72
2022/09/22 22:18:24;;;;;;;4.43;4.03;;;12.60;31.50;;;;;;10535878;28;20223;-72
2022/09/22 22:23:30;;;;;;;7.30;4.50;;;12.60;32.10;;;;;;10535416;28;20230;-72
2022/09/22 22:28:34;;;;;;;5.60;4.30;;;12.50;31.90;;;;;;10534646;28;20273;-72
2022/09/22 22:33:40;;;;;;;6.27;4.37;;;12.50;31.80;;;;;;10534440;28;20227;-72
2022/09/22 22:38:44;;;;;;;5.77;4.53;;;12.40;32.30;;;;;;10534343;28;20739;-72
2022/09/22 22:43:48;;;;;;;4.80;4.40;;;12.30;31.90;;;;;;10533776;28;20235;-72
2022/09/22 22:48:52;;;;;;;6.47;4.27;;;12.30;31.90;;;;;;10534031;28;20268;-72
2022/09/22 22:53:55;;;;;;;4.57;4.17;;;12.20;32.00;;;;;;10533872;28;20312;-72
2022/09/22 22:58:59;;;;;;;4.20;3.80;;;12.20;31.90;;;;;;10532633;28;20243;-72
2022/09/22 23:04:05;;;;;;;4.20;3.77;;;12.10;31.90;;;;;;10532925;28;20227;-72
2022/09/22 23:09:12;;;;;;;4.07;3.63;;;12.00;32.40;;;;;;10532627;28;20785;-72
2022/09/22 23:14:15;;;;;;;3.83;3.50;;;11.90;32.50;;;;;;10533007;28;20235;-72
2022/09/22 23:19:20;;;;;;;4.77;4.23;;;11.80;32.00;;;;;;10532434;28;20236;-72
2022/09/22 23:24:23;;;;;;;4.03;3.63;;;11.80;32.60;;;;;;10532693;28;20276;-72
2022/09/22 23:29:26;;;;;;;4.87;4.37;;;11.80;32.40;;;;;;10532555;28;20691;-72
2022/09/22 23:34:30;;;;;;;4.33;3.90;;;11.70;32.30;;;;;;10532247;28;20227;-72
2022/09/22 23:39:34;;;;;;;4.43;3.90;;;11.70;32.60;;;;;;10531530;28;20231;-72
2022/09/22 23:44:37;;;;;;;5.20;3.90;;;11.60;32.30;;;;;;10531807;28;20235;-72
2022/09/22 23:49:41;;;;;;;4.03;3.63;;;11.50;32.40;;;;;;10532000;28;20223;-72
2022/09/22 23:54:44;;;;;;;3.53;3.10;;;11.40;32.70;;;;;;10530418;28;20556;-72
2022/09/22 23:59:47;;;;;;;4.83;3.10;;;11.50;32.70;;;;;;10531351;28;20228;-72
